California, Maryland
Current Conditions -  °F | °C
As of 1:59 AM on Sunday 23 Nov 2014 (Local Time) from K2W6 Reporting Station
Broken Clouds Broken Clouds  
Wind Chill: 36°   Ceiling: 11000
Heat Index: 41°   Visibility: 10mi
Dew Point: 18°   Wind: 7mph
Humidity: 39%   Direction: 230°SW
Pressure: 30.28"   Gusts: NA
Location:  38.3°N, 76.52°W
Report Text: K2W6 230659Z AUTO 23006KT 10SM BKN110 05/M08 A3028 RMK AO1
Loading
Personal Weather Stations






























Interactive Weather Map New forecast layout! Learn more

10-Day Weather Forecast

Advertisements
Track Severe Weather on mobile